createdAt,value
2019-01-27T00:00:25.162Z,93.21
2019-01-27T00:02:53.661Z,93.21
2019-01-27T00:05:22.099Z,93.21
2019-01-27T00:07:50.544Z,93.21
2019-01-27T00:10:19.039Z,92.87
2019-01-27T00:12:47.497Z,93.01
2019-01-27T00:15:16.024Z,92.87
2019-01-27T00:17:44.514Z,93.30
2019-01-27T00:20:16.134Z,93.30
2019-01-27T00:22:44.588Z,92.90
2019-01-27T00:25:13.159Z,92.82
2019-01-27T00:27:41.688Z,92.51
2019-01-27T00:30:22.290Z,92.74
2019-01-27T00:32:50.756Z,92.74
2019-01-27T00:35:19.482Z,92.79
2019-01-27T00:37:47.964Z,92.79
2019-01-27T00:40:17.661Z,92.62
2019-01-27T00:42:46.351Z,92.33
2019-01-27T00:45:19.551Z,92.33
2019-01-27T00:47:48.005Z,92.48
2019-01-27T00:50:18.203Z,92.59
2019-01-27T00:52:46.700Z,92.65
2019-01-27T00:55:20.349Z,92.83
2019-01-27T00:57:48.882Z,92.83
2019-01-27T01:00:28.972Z,92.60
2019-01-27T01:02:57.511Z,92.60
2019-01-27T01:05:26.195Z,92.78
2019-01-27T01:07:55.070Z,92.78
2019-01-27T01:10:24.174Z,92.84
2019-01-27T01:12:52.705Z,92.84
2019-01-27T01:15:21.451Z,92.68
2019-01-27T01:17:49.898Z,92.91
2019-01-27T01:20:22.616Z,92.65
2019-01-27T01:22:51.725Z,92.65
2019-01-27T01:25:22.326Z,92.92
2019-01-27T01:27:51.138Z,93.07
2019-01-27T01:30:22.149Z,93.01
2019-01-27T01:32:50.602Z,93.18
2019-01-27T01:35:19.130Z,93.18
2019-01-27T01:37:49.063Z,93.25
2019-01-27T01:40:18.758Z,93.25
2019-01-27T01:42:47.288Z,92.99
2019-01-27T01:45:30.139Z,92.99
2019-01-27T01:47:58.669Z,93.09
2019-01-27T01:50:27.218Z,93.09
2019-01-27T01:52:55.854Z,92.85
2019-01-27T01:55:24.394Z,92.85
2019-01-27T01:57:53.118Z,92.93
2019-01-27T02:00:23.872Z,92.93
2019-01-27T02:02:52.388Z,92.84
2019-01-27T02:05:21.207Z,92.86
2019-01-27T02:07:49.697Z,92.85
2019-01-27T02:10:20.567Z,92.87
2019-01-27T02:12:49.561Z,92.82
2019-01-27T02:15:24.192Z,92.82
2019-01-27T02:17:52.647Z,92.69
2019-01-27T02:20:21.111Z,92.63
2019-01-27T02:22:49.606Z,92.52
2019-01-27T02:25:18.065Z,92.51
2019-01-27T02:27:46.531Z,92.41
2019-01-27T02:30:16.262Z,92.28
2019-01-27T02:32:44.722Z,91.86
2019-01-27T02:35:13.187Z,91.86
2019-01-27T02:37:41.731Z,92.20
2019-01-27T02:40:12.373Z,92.13
2019-01-27T02:42:40.816Z,92.44
2019-01-27T02:45:15.202Z,92.44
2019-01-27T02:47:43.721Z,92.14
2019-01-27T02:50:12.627Z,91.97
2019-01-27T02:52:41.193Z,91.91
2019-01-27T02:55:10.125Z,91.76
2019-01-27T02:57:38.631Z,91.76
2019-01-27T03:00:21.647Z,91.95
2019-01-27T03:02:50.321Z,91.89
2019-01-27T03:05:29.528Z,91.68
2019-01-27T03:07:57.970Z,91.82
2019-01-27T03:10:26.426Z,91.88
2019-01-27T03:12:54.909Z,91.77
2019-01-27T03:15:23.442Z,91.59
2019-01-27T03:17:51.906Z,91.58
2019-01-27T03:20:20.394Z,91.54
2019-01-27T03:22:48.863Z,91.28
2019-01-27T03:25:18.477Z,91.30
2019-01-27T03:27:46.973Z,91.07
2019-01-27T03:30:24.792Z,91.07
2019-01-27T03:32:53.286Z,91.41
2019-01-27T03:35:21.740Z,91.41
2019-01-27T03:37:50.188Z,91.12
2019-01-27T03:40:19.901Z,90.91
2019-01-27T03:42:48.845Z,91.17
2019-01-27T03:45:20.016Z,91.15
2019-01-27T03:47:48.598Z,91.23
2019-01-27T03:50:21.231Z,91.00
2019-01-27T03:52:49.766Z,91.00
2019-01-27T03:55:20.801Z,91.05
2019-01-27T03:57:49.245Z,91.16
2019-01-27T04:00:21.940Z,91.11
2019-01-27T04:02:50.439Z,91.11
2019-01-27T04:05:18.964Z,90.98
2019-01-27T04:07:47.437Z,91.00
2019-01-27T04:10:18.834Z,91.05
2019-01-27T04:12:47.289Z,90.97
2019-01-27T04:15:15.884Z,91.06
2019-01-27T04:17:44.512Z,91.30
2019-01-27T04:20:15.115Z,91.05
2019-01-27T04:22:43.584Z,91.05
2019-01-27T04:25:12.400Z,90.86
2019-01-27T04:27:40.856Z,90.96
2019-01-27T04:30:18.991Z,90.61
2019-01-27T04:32:47.451Z,90.61
2019-01-27T04:35:15.978Z,90.78
2019-01-27T04:37:44.491Z,90.76
2019-01-27T04:40:18.295Z,90.71
2019-01-27T04:42:46.731Z,90.76
2019-01-27T04:45:17.846Z,90.59
2019-01-27T04:47:46.352Z,90.59
2019-01-27T04:50:15.175Z,90.77
2019-01-27T04:52:43.747Z,90.53
2019-01-27T04:55:15.006Z,90.53
2019-01-27T04:57:43.468Z,90.79
2019-01-27T05:00:15.438Z,90.57
2019-01-27T05:02:45.534Z,90.50
2019-01-27T05:05:14.124Z,90.45
2019-01-27T05:07:42.610Z,90.49
2019-01-27T05:10:13.119Z,90.44
2019-01-27T05:12:41.629Z,90.41
2019-01-27T05:15:17.520Z,90.48
2019-01-27T05:17:45.968Z,90.53
2019-01-27T05:20:14.486Z,90.53
2019-01-27T05:22:42.970Z,90.63
2019-01-27T05:25:13.766Z,90.59
2019-01-27T05:27:42.227Z,90.66
2019-01-27T05:30:16.868Z,90.69
2019-01-27T05:32:45.338Z,90.63
2019-01-27T05:35:13.868Z,90.65
2019-01-27T05:37:42.387Z,90.61
2019-01-27T05:40:13.377Z,90.61
2019-01-27T05:42:41.839Z,90.60
2019-01-27T05:45:17.268Z,90.69
2019-01-27T05:47:47.595Z,90.73
2019-01-27T05:50:17.255Z,90.78
2019-01-27T05:52:45.776Z,90.78
2019-01-27T05:55:16.149Z,90.87
2019-01-27T05:57:45.883Z,90.86
2019-01-27T06:00:21.312Z,90.91
2019-01-27T06:02:49.802Z,90.60
2019-01-27T06:05:18.264Z,90.60
2019-01-27T06:07:46.764Z,90.27
2019-01-27T06:10:15.251Z,90.83
2019-01-27T06:12:43.719Z,90.87
2019-01-27T06:15:19.343Z,91.01
2019-01-27T06:17:47.837Z,90.83
2019-01-27T06:20:17.235Z,90.78
2019-01-27T06:22:45.680Z,90.78
2019-01-27T06:25:19.198Z,90.77
2019-01-27T06:27:47.725Z,90.44
2019-01-27T06:30:25.056Z,90.44
2019-01-27T06:33:11.330Z,90.89
2019-01-27T06:35:40.389Z,90.60
2019-01-27T06:38:08.849Z,90.60
2019-01-27T06:40:37.308Z,90.74
2019-01-27T06:43:05.860Z,90.59
2019-01-27T06:45:34.312Z,90.59
2019-01-27T06:48:04.166Z,90.59
2019-01-27T06:50:33.833Z,90.59
2019-01-27T06:53:02.346Z,90.73
2019-01-27T06:55:30.814Z,90.72
2019-01-27T06:57:59.368Z,90.71
2019-01-27T07:00:35.102Z,90.71
2019-01-27T07:03:05.667Z,90.24
2019-01-27T07:05:38.419Z,90.24
2019-01-27T07:08:11.288Z,91.13
2019-01-27T07:10:41.374Z,90.87
2019-01-27T07:13:11.458Z,90.87
2019-01-27T07:15:41.588Z,90.60
2019-01-27T07:21:13.052Z,91.04
2019-01-27T07:23:59.194Z,91.05
2019-01-27T07:26:29.344Z,91.05
2019-01-27T07:29:10.988Z,90.71
2019-01-27T07:31:53.212Z,90.72
2019-01-27T07:34:29.253Z,90.75
2019-01-27T07:37:02.458Z,90.75
2019-01-27T07:39:41.738Z,90.77
2019-01-27T07:42:14.480Z,90.45
2019-01-27T07:44:44.588Z,90.43
2019-01-27T07:47:23.759Z,90.31
2019-01-27T07:49:56.344Z,90.31
2019-01-27T07:52:27.927Z,90.52
2019-01-27T07:54:58.218Z,90.52
2019-01-27T07:57:34.109Z,90.54
2019-01-27T08:00:04.232Z,91.11
2019-01-27T08:02:40.208Z,91.11
2019-01-27T08:05:30.425Z,90.23
2019-01-27T08:08:09.265Z,90.23
2019-01-27T08:10:39.402Z,90.45
2019-01-27T08:13:09.494Z,90.75
2019-01-27T08:15:42.313Z,90.67
2019-01-27T08:18:18.483Z,90.23
2019-01-27T08:20:54.400Z,90.23
2019-01-27T08:23:36.331Z,90.26
2019-01-27T08:26:12.883Z,90.21
2019-01-27T08:28:42.991Z,90.31
2019-01-27T08:31:15.776Z,90.45
2019-01-27T08:33:45.864Z,89.95
2019-01-27T08:36:25.131Z,89.95
2019-01-27T08:39:00.976Z,90.14
2019-01-27T08:41:31.113Z,90.22
2019-01-27T08:44:03.668Z,90.22
2019-01-27T08:46:36.822Z,90.34
2019-01-27T08:49:05.340Z,90.34
2019-01-27T08:51:33.807Z,89.69
2019-01-27T08:54:02.523Z,89.71
2019-01-27T08:56:31.065Z,89.90
2019-01-27T08:58:59.525Z,89.84
2019-01-27T09:01:29.629Z,89.84
2019-01-27T09:03:59.724Z,89.70
2019-01-27T09:06:35.596Z,89.58
2019-01-27T09:09:20.670Z,89.71
2019-01-27T09:11:53.256Z,89.52
2019-01-27T09:14:29.270Z,89.52
2019-01-27T09:17:02.482Z,89.44
2019-01-27T09:19:32.720Z,89.43
2019-01-27T09:22:17.876Z,89.27
2019-01-27T09:24:47.997Z,89.18
2019-01-27T09:27:18.383Z,89.20
2019-01-27T09:29:49.071Z,89.05
2019-01-27T09:32:35.573Z,88.75
2019-01-27T09:35:08.706Z,88.52
2019-01-27T09:37:44.837Z,88.31
2019-01-27T09:40:18.065Z,87.94
2019-01-27T09:42:57.721Z,87.83
2019-01-27T09:45:27.878Z,87.95
2019-01-27T09:48:03.887Z,87.78
2019-01-27T09:50:37.084Z,87.89
2019-01-27T09:53:10.129Z,87.83
2019-01-27T09:55:53.606Z,87.66
2019-01-27T09:58:32.546Z,87.74
2019-01-27T10:01:09.921Z,87.52
2019-01-27T10:03:40.180Z,87.60
2019-01-27T10:06:10.347Z,87.51
2019-01-27T10:08:49.476Z,87.51
2019-01-27T10:11:26.618Z,87.49
2019-01-27T10:14:08.993Z,87.61
2019-01-27T10:16:39.098Z,87.63
2019-01-27T10:19:15.031Z,87.40
2019-01-27T10:21:57.302Z,87.35
2019-01-27T10:24:33.483Z,87.29
2019-01-27T10:27:12.819Z,87.20
2019-01-27T10:30:00.813Z,87.18
2019-01-27T10:32:37.069Z,87.37
2019-01-27T10:35:14.654Z,87.20
2019-01-27T10:37:44.767Z,87.07
2019-01-27T10:40:14.930Z,87.11
2019-01-27T10:42:45.082Z,87.18
2019-01-27T10:45:15.243Z,87.22
2019-01-27T10:47:46.836Z,87.31
2019-01-27T10:50:23.319Z,87.34
2019-01-27T10:52:53.422Z,87.27
2019-01-27T10:55:29.508Z,87.08
2019-01-27T10:58:00.007Z,86.93
2019-01-27T11:00:32.662Z,87.15
2019-01-27T11:03:11.909Z,86.77
2019-01-27T11:05:54.307Z,86.66
2019-01-27T11:08:27.380Z,86.56
2019-01-27T11:11:00.535Z,86.01
2019-01-27T11:13:47.240Z,86.05
2019-01-27T11:16:26.213Z,86.07
2019-01-27T11:18:59.109Z,85.59
2019-01-27T11:21:35.438Z,85.89
2019-01-27T11:24:08.649Z,85.68
2019-01-27T11:26:41.289Z,85.59
2019-01-27T11:29:14.372Z,85.46
2019-01-27T11:31:44.456Z,85.45
2019-01-27T11:34:17.553Z,85.29
2019-01-27T11:36:47.692Z,85.28
2019-01-27T11:39:29.717Z,85.37
2019-01-27T11:42:02.531Z,85.16
2019-01-27T11:44:32.626Z,85.45
2019-01-27T11:47:11.284Z,85.78
2019-01-27T11:49:47.370Z,86.05
2019-01-27T11:52:15.818Z,86.19
2019-01-27T11:54:44.301Z,86.57
2019-01-27T11:57:12.762Z,86.72
2019-01-27T11:59:42.324Z,86.94
2019-01-27T12:02:10.833Z,87.06
2019-01-27T12:04:39.265Z,87.20
2019-01-27T12:07:07.717Z,87.56
2019-01-27T12:09:36.215Z,87.65
2019-01-27T12:12:04.729Z,87.65
2019-01-27T12:14:33.177Z,87.62
2019-01-27T12:17:01.650Z,87.61
2019-01-27T12:19:30.101Z,87.62
2019-01-27T12:21:58.560Z,87.62
2019-01-27T12:24:27.046Z,87.57
2019-01-27T12:26:55.507Z,87.59
2019-01-27T12:29:25.512Z,87.55
2019-01-27T12:31:54.113Z,87.22
2019-01-27T12:34:22.587Z,87.18
2019-01-27T12:36:51.024Z,87.08
2019-01-27T12:39:19.522Z,86.89
2019-01-27T12:41:47.965Z,86.59
2019-01-27T12:44:16.415Z,86.34
2019-01-27T12:46:44.925Z,86.56
2019-01-27T12:49:13.377Z,86.73
2019-01-27T12:51:41.842Z,86.74
2019-01-27T12:54:10.325Z,86.71
2019-01-27T12:56:38.794Z,86.77
2019-01-27T12:59:07.244Z,86.71
2019-01-27T13:01:36.208Z,86.48
2019-01-27T13:04:05.204Z,86.42
2019-01-27T13:06:33.643Z,86.25
2019-01-27T13:09:02.136Z,85.89
2019-01-27T13:11:30.613Z,85.80
2019-01-27T13:13:59.068Z,85.35
2019-01-27T13:16:27.539Z,85.17
2019-01-27T13:18:55.983Z,85.12
2019-01-27T13:21:24.455Z,85.21
2019-01-27T13:23:52.954Z,85.23
2019-01-27T13:26:21.413Z,85.14
2019-01-27T13:28:49.862Z,85.29
2019-01-27T13:31:18.726Z,85.18
2019-01-27T13:33:47.308Z,85.41
2019-01-27T13:36:15.764Z,85.36
2019-01-27T13:38:50.856Z,85.40
2019-01-27T13:41:14.418Z,85.22
2019-01-27T13:43:42.882Z,85.38
2019-01-27T13:46:11.384Z,85.47
2019-01-27T13:48:39.841Z,85.49
2019-01-27T13:51:08.383Z,85.68
2019-01-27T13:53:36.890Z,85.67
2019-01-27T13:56:05.480Z,85.75
2019-01-27T13:58:34.032Z,85.78
2019-01-27T14:01:02.498Z,85.88
2019-01-27T14:03:31.130Z,85.96
2019-01-27T14:05:59.659Z,86.10
2019-01-27T14:08:28.146Z,85.99
2019-01-27T14:10:56.597Z,85.92
2019-01-27T14:13:25.065Z,85.74
2019-01-27T14:15:53.544Z,85.88
2019-01-27T14:18:22.005Z,85.81
2019-01-27T14:20:50.452Z,85.83
2019-01-27T14:23:18.951Z,85.93
2019-01-27T14:25:47.390Z,85.87
2019-01-27T14:28:15.851Z,86.01
2019-01-27T14:30:45.530Z,86.09
2019-01-27T14:33:13.989Z,86.18
2019-01-27T14:35:42.446Z,86.13
2019-01-27T14:38:10.918Z,85.96
2019-01-27T14:40:41.841Z,86.12
2019-01-27T14:43:10.279Z,86.00
2019-01-27T14:45:38.761Z,85.96
2019-01-27T14:48:07.747Z,85.89
2019-01-27T14:50:39.271Z,85.95
2019-01-27T14:53:08.583Z,85.99
2019-01-27T14:55:37.040Z,86.05
2019-01-27T14:58:05.722Z,86.19
2019-01-27T15:00:36.874Z,86.28
2019-01-27T15:03:06.648Z,86.35
2019-01-27T15:05:35.530Z,86.52
2019-01-27T15:08:04.824Z,86.62
2019-01-27T15:10:33.238Z,86.71
2019-01-27T15:13:01.764Z,86.82
2019-01-27T15:15:30.262Z,86.76
2019-01-27T15:17:58.697Z,86.69
2019-01-27T15:20:36.306Z,86.68
2019-01-27T15:23:05.518Z,86.73
2019-01-27T15:25:33.969Z,86.80
2019-01-27T15:28:02.467Z,86.82
2019-01-27T15:30:33.143Z,86.93
2019-01-27T15:33:01.656Z,86.92
2019-01-27T15:35:30.166Z,86.86
2019-01-27T15:37:58.634Z,86.80
2019-01-27T15:40:27.157Z,86.61
2019-01-27T15:42:55.656Z,86.69
2019-01-27T15:45:26.926Z,86.71
2019-01-27T15:47:55.438Z,86.83
2019-01-27T15:50:29.887Z,87.09
2019-01-27T15:52:58.338Z,87.09
2019-01-27T15:55:26.971Z,87.18
2019-01-27T15:57:55.454Z,87.22
2019-01-27T16:00:27.076Z,87.35
2019-01-27T16:02:55.519Z,87.42
2019-01-27T16:05:24.439Z,87.49
2019-01-27T16:07:53.429Z,87.64
2019-01-27T16:10:23.724Z,87.72
2019-01-27T16:12:53.470Z,87.88
2019-01-27T16:15:30.110Z,87.88
2019-01-27T16:17:58.768Z,87.98
2019-01-27T16:20:27.605Z,88.11
2019-01-27T16:23:14.183Z,88.15
2019-01-27T16:25:42.695Z,88.24
2019-01-27T16:28:11.322Z,88.24
2019-01-27T16:30:44.897Z,88.27
2019-01-27T16:33:15.113Z,88.29
2019-01-27T16:35:43.568Z,88.27
2019-01-27T16:38:12.053Z,88.24
2019-01-27T16:40:40.503Z,88.35
2019-01-27T16:43:09.133Z,88.39
2019-01-27T16:45:37.593Z,88.35
2019-01-27T16:48:06.049Z,88.36
2019-01-27T16:50:34.488Z,88.39
2019-01-27T16:53:02.983Z,88.39
2019-01-27T16:55:31.434Z,88.35
2019-01-27T16:57:59.892Z,88.36
2019-01-27T17:00:31.955Z,88.33
2019-01-27T17:03:00.415Z,88.39
2019-01-27T17:05:28.947Z,88.86
2019-01-27T17:07:57.820Z,88.72
2019-01-27T17:10:28.000Z,88.67
2019-01-27T17:12:57.032Z,88.61
2019-01-27T17:15:25.573Z,88.62
2019-01-27T17:17:54.017Z,88.67
2019-01-27T17:20:26.252Z,88.76
2019-01-27T17:22:55.044Z,88.76
2019-01-27T17:25:23.560Z,88.59
2019-01-27T17:27:53.641Z,88.63
2019-01-27T17:30:23.716Z,88.56
2019-01-27T17:32:52.309Z,88.48
2019-01-27T17:35:22.790Z,88.45
2019-01-27T17:37:51.334Z,88.51
2019-01-27T17:40:20.529Z,88.58
2019-01-27T17:42:49.370Z,88.61
2019-01-27T17:45:22.986Z,88.62
2019-01-27T17:47:51.519Z,88.63
2019-01-27T17:50:21.308Z,88.66
2019-01-27T17:52:49.881Z,88.56
2019-01-27T17:55:30.439Z,88.57
2019-01-27T17:58:03.243Z,88.59
2019-01-27T18:00:36.239Z,88.52
2019-01-27T18:03:07.103Z,88.36
2019-01-27T18:05:37.237Z,88.32
2019-01-27T18:08:07.381Z,88.18
2019-01-27T18:10:37.545Z,88.26
2019-01-27T18:13:10.450Z,88.08
2019-01-27T18:15:38.920Z,88.00
2019-01-27T18:18:07.347Z,88.02
2019-01-27T18:20:35.845Z,87.91
2019-01-27T18:23:04.363Z,87.91
2019-01-27T18:25:34.491Z,88.13
2019-01-27T18:28:02.966Z,88.11
2019-01-27T18:30:31.427Z,88.37
2019-01-27T18:32:59.886Z,88.50
2019-01-27T18:35:28.517Z,88.47
2019-01-27T18:37:56.961Z,88.53
2019-01-27T18:40:25.479Z,88.48
2019-01-27T18:42:53.999Z,88.65
2019-01-27T18:45:22.557Z,88.74
2019-01-27T18:47:51.006Z,88.79
2019-01-27T18:50:19.576Z,89.01
2019-01-27T18:52:49.660Z,89.18
2019-01-27T18:55:19.751Z,89.41
2019-01-27T18:57:49.878Z,89.57
2019-01-27T19:00:22.778Z,89.61
2019-01-27T19:02:59.134Z,89.70
2019-01-27T19:05:29.235Z,89.81
2019-01-27T19:08:07.880Z,89.82
2019-01-27T19:10:43.804Z,89.75
2019-01-27T19:13:20.504Z,89.65
2019-01-27T19:16:06.749Z,89.62
2019-01-27T19:18:53.164Z,89.54
2019-01-27T19:21:39.643Z,89.51
2019-01-27T19:24:09.788Z,89.30
2019-01-27T19:26:54.926Z,89.15
2019-01-27T19:29:31.206Z,89.03
2019-01-27T19:32:04.272Z,88.87
2019-01-27T19:34:40.393Z,88.91
2019-01-27T19:37:22.816Z,88.84
2019-01-27T19:40:05.273Z,88.83
2019-01-27T19:42:44.134Z,88.93
2019-01-27T19:45:17.347Z,88.82
2019-01-27T19:47:47.460Z,88.86
2019-01-27T19:50:34.216Z,88.84
2019-01-27T19:53:07.233Z,88.84
2019-01-27T19:55:49.567Z,88.82
2019-01-27T19:58:28.320Z,88.79
2019-01-27T20:01:01.342Z,89.03
2019-01-27T20:03:31.444Z,89.26
2019-01-27T20:06:10.379Z,89.37
2019-01-27T20:08:43.220Z,89.55
2019-01-27T20:11:16.336Z,89.58
2019-01-27T20:13:52.217Z,89.55
2019-01-27T20:16:22.712Z,89.58
2019-01-27T20:19:01.452Z,89.50
2019-01-27T20:21:53.414Z,89.51
2019-01-27T20:24:19.701Z,89.54
2019-01-27T20:26:49.783Z,89.43
2019-01-27T20:29:35.204Z,89.32
2019-01-27T20:32:08.209Z,89.26
2019-01-27T20:34:44.201Z,89.17
2019-01-27T20:37:14.345Z,89.03
2019-01-27T20:39:53.568Z,88.95
2019-01-27T20:42:35.917Z,88.75
2019-01-27T20:45:11.725Z,88.57
2019-01-27T20:47:50.787Z,88.48
2019-01-27T20:50:20.883Z,88.36
2019-01-27T20:53:00.032Z,88.37
2019-01-27T20:55:30.235Z,88.35
2019-01-27T20:58:03.216Z,88.45
2019-01-27T21:00:33.309Z,88.45
2019-01-27T21:03:06.167Z,88.49
2019-01-27T21:05:42.088Z,88.46
2019-01-27T21:08:18.054Z,88.34
2019-01-27T21:11:04.616Z,88.41
2019-01-27T21:13:37.145Z,88.33
2019-01-27T21:16:07.608Z,88.28
2019-01-27T21:18:37.841Z,88.27
2019-01-27T21:21:06.491Z,88.21
2019-01-27T21:23:34.931Z,88.16
2019-01-27T21:26:03.519Z,88.11
2019-01-27T21:28:32.001Z,88.06
2019-01-27T21:31:00.440Z,87.98
2019-01-27T21:33:28.907Z,87.92
2019-01-27T21:35:57.393Z,87.87
2019-01-27T21:38:25.838Z,87.82
2019-01-27T21:40:54.276Z,87.80
2019-01-27T21:43:22.773Z,87.80
2019-01-27T21:45:51.223Z,87.73
2019-01-27T21:48:19.658Z,87.76
2019-01-27T21:50:48.128Z,87.70
2019-01-27T21:53:16.587Z,87.82
2019-01-27T21:55:45.189Z,87.75
2019-01-27T21:58:13.678Z,87.75
2019-01-27T22:00:42.140Z,87.77
2019-01-27T22:03:10.584Z,87.81
2019-01-27T22:05:39.073Z,87.83
2019-01-27T22:08:07.524Z,87.89
2019-01-27T22:10:35.981Z,87.92
2019-01-27T22:13:04.529Z,87.95
2019-01-27T22:15:32.978Z,87.89
2019-01-27T22:18:01.426Z,87.90
2019-01-27T22:20:30.184Z,87.92
2019-01-27T22:22:58.633Z,87.82
2019-01-27T22:25:27.072Z,87.75
2019-01-27T22:27:55.555Z,87.71
2019-01-27T22:30:24.060Z,87.59
2019-01-27T22:32:52.508Z,87.61
2019-01-27T22:35:21.006Z,87.53
2019-01-27T22:37:49.529Z,87.57
2019-01-27T22:40:18.052Z,87.58
2019-01-27T22:42:46.533Z,87.59
2019-01-27T22:45:16.263Z,87.64
2019-01-27T22:47:44.796Z,87.78
2019-01-27T22:50:15.913Z,87.92
2019-01-27T22:52:44.354Z,88.07
2019-01-27T22:55:13.175Z,88.23
2019-01-27T22:57:41.660Z,88.32
2019-01-27T23:00:23.774Z,88.47
2019-01-27T23:02:52.235Z,88.50
2019-01-27T23:05:20.687Z,88.51
2019-01-27T23:07:49.139Z,88.53
2019-01-27T23:10:17.786Z,88.44
2019-01-27T23:12:46.244Z,88.42
2019-01-27T23:15:14.754Z,88.49
2019-01-27T23:17:43.227Z,88.42
2019-01-27T23:20:11.735Z,88.51
2019-01-27T23:22:40.298Z,88.35
2019-01-27T23:25:08.788Z,88.35
2019-01-27T23:27:37.222Z,88.42
2019-01-27T23:30:07.923Z,88.38
2019-01-27T23:32:36.419Z,88.55
2019-01-27T23:35:06.607Z,88.46
2019-01-27T23:37:35.051Z,88.47
2019-01-27T23:40:05.051Z,88.51
2019-01-27T23:42:33.509Z,88.47
2019-01-27T23:45:01.959Z,88.41
2019-01-27T23:47:30.459Z,88.51
2019-01-27T23:49:58.921Z,88.56
2019-01-27T23:52:27.383Z,88.57
2019-01-27T23:54:55.854Z,88.60
2019-01-27T23:57:24.312Z,88.70
2019-01-27T23:59:52.763Z,88.73
